Willkommen auf der Webseite des Flugplatzes Uetersen/Heist PDF Drucken E-Mail

 

Liebe Fliegerfreunde, liebe Gäste und Kunden des Flugplatzes Uetersen,

 

Herr Szaguhn steht mit seinem Tower-Restaurant wieder täglich außer Montags für Sie bereit.

 

 

 

 

Zufallsbild

Aktuelle Termine

Mo Di Mi Do Fr Sa So
27 28 29 30 1 2 3
4 5 6 7 8 9 10
11 12 13 14 15 16 17
18 19 20 21 22 23 24
25 26 27 28 29 30 31

Pilotenwetter

[source: ADDS]
METAR
EDDH 010750Z 23015KT 9999 BKN024 BKN120 19/15 Q1011 BECMG 23015G25KT =
TAF
TAF EDDH 010500Z 0106/0212 21012KT 9999 SCT020 BKN040 PROB30 TEMPO 0106/0108 BKN014 TEMPO 0108/0116 21015G25KT BECMG 0117/0119 19005KT TEMPO 0202/0208 4500 RA BKN010 BECMG 0204/0206 24010KT TEMPO 0206/0212 24015G25KT PROB30 TEMPO 0210/0212 4500 SHRA SCT015CB =